Time;durP1;ratioP1;P1;durP2;ratioP2;P2;SDS_P1;SDS_P2;PMS_P1;PMS_P2;Temp;Humidity;BMP_temperature;BMP_pressure;BME280_temperature;BME280_humidity;BME280_pressure;Samples;Min_cycle;Max_cycle;Signal;HPM_P1;HPM_P2
2023/08/20 00:05:14;;;;;;;8.10;1.60;;;19.30;1.00;;;;;;20633997;28;20070;-43
2023/08/20 00:15:14;;;;;;;7.32;1.65;;;19.30;1.00;;;;;;20661549;28;20505;-43
2023/08/20 00:25:17;;;;;;;7.55;1.75;;;19.20;1.00;;;;;;20681942;28;20061;-43
2023/08/20 00:35:17;;;;;;;9.95;1.83;;;19.20;1.00;;;;;;20678606;28;20045;-42
2023/08/20 00:45:18;;;;;;;6.17;1.87;;;19.20;1.00;;;;;;20675154;28;20088;-43
2023/08/20 00:55:19;;;;;;;4.93;1.60;;;19.10;1.00;;;;;;20680521;28;20053;-43
2023/08/20 01:05:20;;;;;;;4.55;1.70;;;19.00;1.00;;;;;;20672697;28;20528;-43
2023/08/20 01:15:21;;;;;;;7.33;2.17;;;19.10;1.00;;;;;;20677016;28;20336;-43
2023/08/20 01:25:43;;;;;;;6.35;1.92;;;19.10;1.00;;;;;;20675900;28;20473;-43
2023/08/20 01:35:43;;;;;;;7.18;2.00;;;19.00;1.00;;;;;;20670670;28;20042;-43
2023/08/20 01:45:44;;;;;;;7.47;1.88;;;18.80;1.00;;;;;;20669656;28;20088;-43
2023/08/20 01:55:45;;;;;;;8.48;2.08;;;18.50;1.00;;;;;;20669295;28;20616;-43
2023/08/20 02:05:45;;;;;;;8.03;1.70;;;18.30;1.00;;;;;;20671337;28;20052;-43
2023/08/20 02:15:46;;;;;;;9.13;3.17;;;18.10;1.00;;;;;;20669800;28;20046;-43
2023/08/20 02:25:47;;;;;;;6.30;1.85;;;17.90;1.00;;;;;;20671491;28;20046;-43
2023/08/20 02:35:47;;;;;;;4.85;1.52;;;17.90;1.00;;;;;;20968615;23;20040;-44
2023/08/20 02:45:48;;;;;;;5.97;2.35;;;17.80;1.00;;;;;;20844922;28;20051;-44
2023/08/20 02:55:49;;;;;;;6.97;2.40;;;17.70;1.00;;;;;;20835424;28;20505;-43
2023/08/20 03:05:50;;;;;;;6.68;2.83;;;17.60;1.00;;;;;;20821571;28;20111;-43
2023/08/20 03:15:51;;;;;;;8.55;3.47;;;17.70;1.00;;;;;;20839935;28;20591;-44
2023/08/20 03:25:52;;;;;;;6.57;2.88;;;17.70;1.00;;;;;;20842896;28;20075;-44
2023/08/20 03:35:52;;;;;;;8.50;3.20;;;17.70;2.40;;;;;;20839622;28;20045;-44
2023/08/20 03:45:53;;;;;;;9.27;3.25;;;17.80;1.00;;;;;;20834889;28;20033;-44
2023/08/20 03:55:54;;;;;;;9.15;3.80;;;17.70;1.50;;;;;;20835712;28;20037;-44
2023/08/20 04:05:54;;;;;;;7.47;3.70;;;17.50;8.30;;;;;;20843815;28;20041;-43
2023/08/20 04:15:55;;;;;;;9.40;3.53;;;17.50;6.00;;;;;;20846368;28;20166;-44
2023/08/20 04:25:56;;;;;;;12.27;4.53;;;17.40;5.30;;;;;;20844400;28;20455;-43
2023/08/20 04:35:56;;;;;;;9.43;4.10;;;17.20;13.70;;;;;;20844703;28;20045;-43
2023/08/20 04:45:57;;;;;;;8.15;3.35;;;17.20;58.70;;;;;;20847005;28;20098;-43
2023/08/20 04:55:58;;;;;;;5.80;3.28;;;16.90;92.80;;;;;;20846230;28;21254;-43
2023/08/20 05:05:59;;;;;;;9.07;3.72;;;16.80;99.90;;;;;;20842158;28;20037;-43
2023/08/20 05:15:59;;;;;;;9.63;4.25;;;16.60;99.90;;;;;;20841202;28;20044;-43
2023/08/20 05:26:00;;;;;;;9.80;4.50;;;16.70;99.90;;;;;;20848774;28;20068;-43
2023/08/20 05:36:00;;;;;;;8.13;3.80;;;16.70;99.90;;;;;;20855288;28;20053;-43
2023/08/20 05:46:01;;;;;;;11.20;4.57;;;16.90;99.90;;;;;;20842466;28;20465;-43
2023/08/20 05:56:01;;;;;;;8.02;3.33;;;17.20;99.90;;;;;;20839694;28;20050;-43
2023/08/20 06:06:02;;;;;;;6.65;2.50;;;18.40;80.10;;;;;;20844176;28;20152;-43
2023/08/20 06:16:03;;;;;;;6.75;2.95;;;18.80;14.40;;;;;;20835255;28;20068;-43
2023/08/20 06:26:03;;;;;;;7.80;3.20;;;18.70;1.00;;;;;;20829119;28;20060;-43
2023/08/20 06:36:04;;;;;;;10.52;2.90;;;18.40;1.00;;;;;;20849970;28;21060;-43
2023/08/20 06:46:04;;;;;;;6.65;2.50;;;18.60;1.00;;;;;;20826668;28;20045;-42
2023/08/20 06:56:05;;;;;;;8.80;3.55;;;18.70;1.00;;;;;;20781481;28;20214;-43
2023/08/20 07:06:06;;;;;;;8.30;3.15;;;18.90;1.00;;;;;;20819596;28;20041;-43
2023/08/20 07:16:06;;;;;;;9.75;2.75;;;18.90;1.00;;;;;;20813733;28;20128;-43
2023/08/20 07:26:10;;;;;;;15.35;4.00;;;19.20;1.00;;;;;;20816173;28;20099;-43
2023/08/20 07:36:10;;;;;;;5.95;2.50;;;19.40;1.00;;;;;;20828762;28;20523;-44
2023/08/20 07:46:11;;;;;;;7.30;2.75;;;19.50;1.00;;;;;;20861835;28;20056;-44
2023/08/20 07:56:12;;;;;;;8.63;2.85;;;19.70;1.00;;;;;;20786218;28;20049;-43
2023/08/20 08:06:12;;;;;;;10.15;3.13;;;19.90;1.00;;;;;;20846015;28;20037;-44
2023/08/20 08:16:13;;;;;;;8.00;2.03;;;20.20;1.00;;;;;;20824816;28;20491;-44
2023/08/20 08:26:14;;;;;;;6.35;1.70;;;20.60;1.00;;;;;;20827219;28;20055;-43
2023/08/20 08:36:16;;;;;;;7.93;1.80;;;21.00;1.00;;;;;;20810372;28;22649;-44
2023/08/20 08:46:17;;;;;;;8.93;2.00;;;21.30;1.00;;;;;;20850076;28;20049;-44
2023/08/20 08:56:18;;;;;;;6.78;1.50;;;21.70;1.00;;;;;;20852277;28;20094;-43
2023/08/20 09:06:18;;;;;;;4.32;1.25;;;22.30;1.00;;;;;;20862776;28;20037;-44
2023/08/20 09:16:19;;;;;;;6.00;1.20;;;22.60;1.00;;;;;;20846304;28;20132;-44
2023/08/20 09:26:19;;;;;;;5.70;1.27;;;22.80;1.00;;;;;;20831762;28;20037;-44
2023/08/20 09:36:34;;;;;;;5.20;1.30;;;23.40;1.00;;;;;;20802369;28;20045;-44
2023/08/20 09:46:36;;;;;;;5.30;1.13;;;23.90;1.00;;;;;;20842108;28;20037;-44
2023/08/20 09:56:41;;;;;;;4.50;1.20;;;24.40;1.00;;;;;;20871283;28;20123;-45
2023/08/20 10:06:43;;;;;;;8.75;1.48;;;24.70;1.00;;;;;;20872168;28;20043;-44
2023/08/20 10:16:44;;;;;;;4.00;1.15;;;25.30;1.00;;;;;;20869144;28;20125;-44
2023/08/20 10:26:46;;;;;;;4.87;0.97;;;25.40;1.00;;;;;;20842369;28;20033;-44
2023/08/20 10:36:50;;;;;;;4.43;1.00;;;25.00;1.00;;;;;;20854830;28;20052;-43
2023/08/20 10:46:51;;;;;;;4.30;0.93;;;24.90;1.00;;;;;;20849084;28;20044;-44
2023/08/20 10:57:00;;;;;;;5.28;0.90;;;25.10;1.00;;;;;;20857198;28;20037;-44
2023/08/20 11:07:01;;;;;;;6.05;1.17;;;25.50;1.00;;;;;;20855248;28;20400;-44
2023/08/20 11:17:02;;;;;;;4.65;0.82;;;25.70;1.00;;;;;;20857986;28;20507;-44
2023/08/20 11:27:03;;;;;;;4.87;1.63;;;25.60;1.00;;;;;;20853288;28;20068;-44
2023/08/20 11:37:04;;;;;;;3.25;1.00;;;25.90;1.00;;;;;;20854362;28;20049;-44
2023/08/20 11:47:16;;;;;;;2.35;0.70;;;26.20;1.00;;;;;;20820603;28;20047;-44
2023/08/20 11:57:18;;;;;;;2.03;0.70;;;26.60;1.00;;;;;;20833824;28;20048;-44
2023/08/20 12:07:18;;;;;;;3.22;0.80;;;26.50;1.00;;;;;;20835618;28;20873;-44
2023/08/20 12:17:19;;;;;;;4.75;0.95;;;25.60;1.00;;;;;;20835246;28;20052;-44
2023/08/20 12:27:20;;;;;;;2.42;0.52;;;25.40;1.00;;;;;;20834095;28;20041;-44
2023/08/20 12:37:20;;;;;;;2.10;0.55;;;25.00;1.00;;;;;;20852421;28;20053;-43
2023/08/20 12:47:21;;;;;;;3.13;0.80;;;25.70;1.00;;;;;;20832542;28;20061;-44
2023/08/20 12:57:22;;;;;;;3.90;0.82;;;26.00;1.00;;;;;;20827827;28;20067;-44
2023/08/20 13:07:22;;;;;;;4.72;0.75;;;25.90;1.00;;;;;;20839834;28;20120;-44
2023/08/20 13:17:24;;;;;;;3.65;1.15;;;26.30;1.00;;;;;;20822518;28;20041;-44
2023/08/20 13:27:24;;;;;;;2.53;0.70;;;27.00;1.00;;;;;;20845260;28;20046;-44
2023/08/20 13:37:25;;;;;;;2.35;0.77;;;26.80;1.00;;;;;;20789891;28;20519;-44
2023/08/20 13:47:26;;;;;;;3.60;0.90;;;26.40;1.00;;;;;;20819850;28;20463;-44
2023/08/20 13:57:26;;;;;;;5.75;0.98;;;25.60;1.00;;;;;;20827624;28;20052;-44
2023/08/20 14:07:27;;;;;;;3.13;0.70;;;26.10;1.00;;;;;;20826046;28;20129;-44
2023/08/20 14:17:28;;;;;;;4.40;0.90;;;26.60;1.00;;;;;;20754960;28;20053;-44
2023/08/20 14:27:29;;;;;;;4.88;0.73;;;26.90;1.00;;;;;;20811830;28;20115;-44
2023/08/20 14:37:29;;;;;;;2.63;1.00;;;26.90;1.00;;;;;;20806617;28;20210;-44
2023/08/20 14:47:31;;;;;;;3.35;0.80;;;26.30;1.00;;;;;;20808008;28;20045;-44
2023/08/20 14:57:31;;;;;;;4.57;0.98;;;25.80;1.00;;;;;;20787160;28;20047;-44
2023/08/20 15:07:32;;;;;;;3.33;0.70;;;25.90;1.00;;;;;;20821923;28;20049;-44
2023/08/20 15:17:33;;;;;;;3.42;0.70;;;26.30;1.00;;;;;;20806867;28;20052;-44
2023/08/20 15:27:34;;;;;;;3.17;0.60;;;26.00;1.00;;;;;;20789394;28;20131;-44
2023/08/20 15:37:35;;;;;;;3.55;0.75;;;26.00;1.00;;;;;;20817626;28;20052;-44
2023/08/20 15:47:35;;;;;;;5.57;0.80;;;25.90;1.00;;;;;;20821698;28;20048;-44
2023/08/20 15:57:36;;;;;;;4.22;1.00;;;25.50;1.00;;;;;;20842061;28;20098;-44
2023/08/20 16:07:37;;;;;;;2.67;0.60;;;25.00;1.00;;;;;;20840731;28;20306;-44
2023/08/20 16:17:37;;;;;;;4.40;0.77;;;24.90;1.00;;;;;;20830217;28;20083;-44
2023/08/20 16:27:38;;;;;;;6.22;1.95;;;25.00;1.00;;;;;;20827692;28;20036;-44
2023/08/20 16:37:38;;;;;;;2.97;0.70;;;24.60;1.00;;;;;;20815067;28;20056;-44
2023/08/20 16:47:39;;;;;;;3.30;0.93;;;24.50;1.00;;;;;;20799345;28;20048;-44
2023/08/20 16:57:39;;;;;;;2.08;0.57;;;24.50;1.00;;;;;;20812701;28;20051;-43
2023/08/20 17:07:40;;;;;;;4.82;1.48;;;24.30;1.00;;;;;;20847113;28;20037;-43
2023/08/20 17:17:41;;;;;;;4.97;0.75;;;24.00;1.00;;;;;;20851996;28;21852;-44
2023/08/20 17:27:41;;;;;;;2.88;0.88;;;23.60;1.00;;;;;;20852283;28;20041;-44
2023/08/20 17:37:42;;;;;;;4.75;1.00;;;23.70;1.00;;;;;;20861829;28;20045;-44
2023/08/20 17:47:42;;;;;;;5.68;1.13;;;23.40;1.00;;;;;;20858006;28;20041;-44
2023/08/20 17:57:43;;;;;;;4.53;1.17;;;23.20;1.00;;;;;;20839267;28;20066;-44
2023/08/20 18:07:45;;;;;;;4.20;1.00;;;23.00;1.00;;;;;;20837094;28;20052;-43
2023/08/20 18:17:45;;;;;;;3.65;0.90;;;22.70;1.00;;;;;;20818331;28;21674;-44
2023/08/20 18:27:46;;;;;;;3.90;1.17;;;22.60;1.00;;;;;;20828620;28;21187;-44
2023/08/20 18:37:47;;;;;;;4.90;1.93;;;22.60;1.00;;;;;;20820120;28;20076;-44
2023/08/20 18:47:48;;;;;;;3.13;0.60;;;22.30;1.00;;;;;;20825133;28;20069;-44
2023/08/20 18:57:48;;;;;;;5.03;1.10;;;22.10;1.00;;;;;;20849923;28;20464;-45
2023/08/20 19:07:51;;;;;;;3.00;1.02;;;22.00;1.00;;;;;;20818174;28;20358;-44
2023/08/20 19:17:52;;;;;;;4.07;1.10;;;21.70;1.00;;;;;;20798522;28;20055;-44
2023/08/20 19:27:53;;;;;;;3.03;0.70;;;21.50;1.00;;;;;;20785550;28;20038;-44
2023/08/20 19:37:53;;;;;;;2.67;0.83;;;21.20;1.00;;;;;;20811897;28;20067;-44
2023/08/20 19:47:54;;;;;;;3.55;0.60;;;20.80;1.00;;;;;;20800611;28;20484;-44
2023/08/20 19:57:56;;;;;;;2.97;0.90;;;20.50;1.00;;;;;;20800120;28;20037;-44
2023/08/20 20:07:58;;;;;;;3.78;0.95;;;20.20;1.00;;;;;;20816905;28;20041;-44
2023/08/20 20:17:58;;;;;;;4.38;1.20;;;20.10;1.00;;;;;;20813699;28;20045;-43
2023/08/20 20:27:59;;;;;;;5.35;1.38;;;20.00;1.00;;;;;;20839841;28;20124;-44
2023/08/20 20:37:59;;;;;;;3.88;0.90;;;20.00;1.00;;;;;;20825709;28;20607;-44
2023/08/20 20:48:00;;;;;;;5.25;1.30;;;19.90;1.00;;;;;;20833837;28;20400;-44
2023/08/20 20:58:01;;;;;;;3.35;1.05;;;19.80;1.00;;;;;;20838746;28;20052;-44
2023/08/20 21:08:02;;;;;;;5.65;1.58;;;19.60;1.00;;;;;;20853076;28;20051;-44
2023/08/20 21:18:03;;;;;;;5.30;1.17;;;19.50;1.00;;;;;;20846089;28;20048;-44
2023/08/20 21:28:03;;;;;;;2.65;0.90;;;19.30;1.00;;;;;;20847811;28;20060;-44
2023/08/20 21:38:04;;;;;;;3.20;1.02;;;19.10;1.00;;;;;;20827656;28;20092;-44
2023/08/20 21:48:05;;;;;;;4.07;0.90;;;18.80;1.00;;;;;;20824414;28;20484;-44
2023/08/20 21:58:05;;;;;;;4.40;1.50;;;18.70;1.00;;;;;;20826808;28;20153;-44
2023/08/20 22:08:06;;;;;;;4.43;1.17;;;18.60;1.00;;;;;;20825204;28;20511;-43
2023/08/20 22:18:06;;;;;;;2.95;1.10;;;18.40;1.00;;;;;;20830897;28;20053;-44
2023/08/20 22:28:07;;;;;;;4.03;1.00;;;18.30;1.00;;;;;;20843908;28;20116;-43
2023/08/20 22:38:09;;;;;;;3.75;1.50;;;18.20;1.00;;;;;;20824369;28;20507;-44
2023/08/20 22:48:10;;;;;;;4.00;1.27;;;18.10;1.00;;;;;;20803577;28;20095;-44
2023/08/20 22:58:11;;;;;;;4.78;1.60;;;18.00;1.00;;;;;;20817976;28;20500;-44
2023/08/20 23:08:11;;;;;;;4.18;1.88;;;17.80;1.00;;;;;;20821215;28;20449;-44
2023/08/20 23:18:12;;;;;;;4.28;1.80;;;17.80;1.00;;;;;;20813953;28;20136;-43
2023/08/20 23:28:12;;;;;;;6.60;1.43;;;17.60;1.00;;;;;;20814729;28;20194;-43
2023/08/20 23:38:13;;;;;;;5.75;1.95;;;17.60;1.00;;;;;;20810421;28;20612;-44
2023/08/20 23:48:14;;;;;;;3.35;1.58;;;17.60;1.00;;;;;;20815264;28;20041;-44
2023/08/20 23:58:14;;;;;;;3.78;1.67;;;17.50;1.00;;;;;;20812891;28;20101;-43
